Time;durP1;ratioP1;P1;durP2;ratioP2;P2;SDS_P1;SDS_P2;PMS_P1;PMS_P2;Temp;Humidity;BMP_temperature;BMP_pressure;BME280_temperature;BME280_humidity;BME280_pressure;Samples;Min_cycle;Max_cycle;Signal;HPM_P1;HPM_P2
2023/04/01 00:00:33;;;;;;;0.93;0.60;;;;;;;8.53;100.00;96753.69;5052775;28;20205;-76
2023/04/01 00:03:00;;;;;;;0.93;0.50;;;;;;;8.47;100.00;96757.28;5052647;28;20233;-76
2023/04/01 00:05:26;;;;;;;1.43;0.67;;;;;;;8.40;100.00;96764.53;5055056;28;20300;-76
2023/04/01 00:07:52;;;;;;;0.47;0.40;;;;;;;8.44;100.00;96760.38;5056603;28;20209;-76
2023/04/01 00:10:19;;;;;;;1.33;0.50;;;;;;;8.57;100.00;96760.09;5056213;28;20212;-76
2023/04/01 00:12:45;;;;;;;1.17;0.60;;;;;;;8.56;100.00;96754.00;5056068;28;20221;-76
2023/04/01 00:15:12;;;;;;;1.70;0.80;;;;;;;8.54;100.00;96766.69;5056137;28;20209;-76
2023/04/01 00:17:39;;;;;;;1.90;0.80;;;;;;;8.65;100.00;96770.31;5056082;28;20242;-76
2023/04/01 00:20:08;;;;;;;1.40;0.63;;;;;;;8.71;100.00;96769.38;5055786;28;20237;-76
2023/04/01 00:22:34;;;;;;;1.83;0.80;;;;;;;8.68;100.00;96764.53;5055904;28;20225;-76
2023/04/01 00:25:01;;;;;;;3.63;0.60;;;;;;;8.70;100.00;96760.63;5055900;28;20221;-76
2023/04/01 00:27:27;;;;;;;2.13;0.80;;;;;;;8.70;100.00;96754.53;5055585;28;20205;-76
2023/04/01 00:29:53;;;;;;;1.53;0.57;;;;;;;8.67;100.00;96760.28;5055785;28;20230;-76
2023/04/01 00:32:20;;;;;;;1.70;0.60;;;;;;;8.66;100.00;96762.16;5055536;28;20247;-76
2023/04/01 00:34:46;;;;;;;1.37;0.60;;;;;;;8.63;100.00;96765.25;5055638;28;20186;-76
2023/04/01 00:37:13;;;;;;;1.53;0.80;;;;;;;8.56;100.00;96755.84;5055627;28;20208;-76
2023/04/01 00:39:40;;;;;;;2.13;0.80;;;;;;;8.53;100.00;96754.50;5055662;28;20209;-76
2023/04/01 00:42:06;;;;;;;1.07;0.70;;;;;;;8.60;100.00;96771.03;5055606;28;20209;-76
2023/04/01 00:44:35;;;;;;;1.77;0.70;;;;;;;8.63;100.00;96775.03;5055533;28;20225;-76
2023/04/01 00:47:01;;;;;;;2.87;0.77;;;;;;;8.66;100.00;96774.56;5055215;28;20652;-76
2023/04/01 00:49:32;;;;;;;1.83;0.87;;;;;;;8.70;100.00;96763.28;5055344;28;20249;-76
2023/04/01 00:52:01;;;;;;;2.57;0.67;;;;;;;8.76;100.00;96780.06;5021601;28;20194;-76
2023/04/01 00:54:30;;;;;;;1.43;0.57;;;;;;;8.75;100.00;96768.66;5037805;28;20201;-76
2023/04/01 00:57:08;;;;;;;0.93;0.50;;;;;;;8.80;100.00;96768.75;5055116;28;20210;-76
2023/04/01 00:59:37;;;;;;;3.27;0.93;;;;;;;8.78;100.00;96775.34;5055391;28;20189;-76
2023/04/01 01:02:08;;;;;;;3.17;0.70;;;;;;;8.80;100.00;96776.69;5054836;28;20213;-76
2023/04/01 01:04:35;;;;;;;1.53;0.83;;;;;;;8.72;100.00;96770.97;5054844;28;20210;-76
2023/04/01 01:07:15;;;;;;;2.23;0.73;;;;;;;8.68;100.00;96768.00;5055149;28;20288;-76
2023/04/01 01:10:02;;;;;;;2.63;0.70;;;;;;;8.70;100.00;96768.59;5055205;28;20185;-76
2023/04/01 01:12:35;;;;;;;3.57;0.90;;;;;;;8.68;100.00;96765.34;5055069;28;20225;-76
2023/04/01 01:15:47;;;;;;;2.60;0.70;;;;;;;8.67;100.00;96761.09;5037477;28;20190;-76
2023/04/01 01:18:26;;;;;;;1.37;1.03;;;;;;;8.69;100.00;96758.22;5039483;28;20209;-76
2023/04/01 01:21:11;;;;;;;1.53;0.70;;;;;;;8.64;100.00;96766.06;5054883;28;20196;-75
2023/04/01 01:24:10;;;;;;;2.30;1.13;;;;;;;8.56;100.00;96759.28;5054690;28;20233;-76
2023/04/01 01:27:00;;;;;;;3.03;1.00;;;;;;;8.60;100.00;96764.94;5054823;28;20205;-76
2023/04/01 01:29:47;;;;;;;2.83;0.60;;;;;;;8.58;100.00;96756.41;5055133;28;20217;-76
2023/04/01 01:32:20;;;;;;;1.87;1.20;;;;;;;8.57;100.00;96760.09;5054428;28;20316;-76
2023/04/01 01:34:53;;;;;;;2.37;0.80;;;;;;;8.61;100.00;96766.53;5036800;28;20185;-75
2023/04/01 01:37:23;;;;;;;2.20;1.00;;;;;;;8.59;100.00;96764.13;5054329;28;20189;-76
2023/04/01 01:39:57;;;;;;;1.30;0.77;;;;;;;8.62;100.00;96762.84;5054542;28;20197;-76
2023/04/01 01:42:27;;;;;;;1.87;0.73;;;;;;;8.57;100.00;96760.09;5037954;28;20224;-76
2023/04/01 01:44:56;;;;;;;3.67;0.80;;;;;;;8.56;100.00;96761.16;5054114;28;20270;-76
2023/04/01 01:47:25;;;;;;;2.00;0.90;;;;;;;8.51;100.00;96758.41;5054450;28;20584;-76
2023/04/01 01:49:53;;;;;;;1.77;0.90;;;;;;;8.44;100.00;96766.50;5053958;28;20217;-76
2023/04/01 01:52:20;;;;;;;3.07;0.70;;;;;;;8.43;100.00;96759.59;5054219;28;20229;-76
2023/04/01 01:54:55;;;;;;;3.20;0.80;;;;;;;8.42;100.00;96762.47;5053900;28;20664;-76
2023/04/01 01:57:31;;;;;;;2.97;0.93;;;;;;;8.37;100.00;96765.81;5054222;28;20215;-76
2023/04/01 02:00:02;;;;;;;1.93;0.70;;;;;;;8.33;100.00;96756.75;5053858;28;20555;-76
2023/04/01 02:02:31;;;;;;;1.90;0.60;;;;;;;8.25;100.00;96759.78;5054156;28;20310;-76
2023/04/01 02:04:58;;;;;;;4.03;0.80;;;;;;;8.25;100.00;96751.84;5054005;28;20244;-76
2023/04/01 02:07:29;;;;;;;2.40;0.80;;;;;;;8.25;100.00;96749.19;5054011;28;20212;-75
2023/04/01 02:09:56;;;;;;;3.30;0.70;;;;;;;8.26;100.00;96747.34;5036413;28;20190;-76
2023/04/01 02:12:24;;;;;;;1.43;0.70;;;;;;;8.25;100.00;96751.03;5053887;28;20225;-75
2023/04/01 02:15:01;;;;;;;2.00;0.70;;;;;;;8.33;100.00;96753.31;5053627;28;20679;-75
2023/04/01 02:17:31;;;;;;;3.83;0.73;;;;;;;8.28;100.00;96759.28;5053846;28;20189;-75
2023/04/01 02:20:00;;;;;;;1.27;0.70;;;;;;;8.30;100.00;96759.06;5053793;28;20209;-75
2023/04/01 02:22:30;;;;;;;2.40;0.60;;;;;;;8.33;100.00;96769.19;5053741;28;20232;-75
2023/04/01 02:25:05;;;;;;;1.43;1.03;;;;;;;8.37;100.00;96759.75;5035955;28;20225;-75
2023/04/01 02:27:32;;;;;;;3.10;1.03;;;;;;;8.21;100.00;96765.78;5053153;28;20190;-75
2023/04/01 02:29:59;;;;;;;1.03;0.53;;;;;;;8.23;100.00;96759.19;5053417;28;20205;-75
2023/04/01 02:32:28;;;;;;;1.40;0.60;;;;;;;8.21;100.00;96765.78;5053341;28;20248;-76
2023/04/01 02:34:55;;;;;;;2.93;0.77;;;;;;;8.23;100.00;96755.75;5053608;28;20196;-75
2023/04/01 02:37:21;;;;;;;1.20;0.47;;;;;;;8.24;100.00;96758.16;5053491;28;20212;-75
2023/04/01 02:39:48;;;;;;;0.33;0.33;;;;;;;8.05;100.00;96756.69;5053619;28;20227;-76
2023/04/01 02:42:15;;;;;;;1.80;0.70;;;;;;;8.03;100.00;96744.72;5053459;28;20225;-76
2023/04/01 02:44:41;;;;;;;1.07;0.50;;;;;;;7.97;100.00;96757.06;5053034;28;20225;-75
2023/04/01 02:47:08;;;;;;;0.73;0.43;;;;;;;8.00;100.00;96753.13;5053142;28;20684;-75
2023/04/01 02:49:34;;;;;;;2.40;0.70;;;;;;;8.05;100.00;96755.91;5053437;28;20205;-75
2023/04/01 02:52:00;;;;;;;2.77;0.60;;;;;;;8.09;100.00;96754.38;5053053;28;20208;-75
2023/04/01 02:54:27;;;;;;;0.70;0.40;;;;;;;8.08;100.00;96755.41;5053114;28;20201;-75
2023/04/01 02:56:53;;;;;;;1.33;0.50;;;;;;;8.15;100.00;96759.53;5053110;28;20661;-75
2023/04/01 02:59:20;;;;;;;0.50;0.40;;;;;;;8.18;100.00;96759.06;5053305;28;20204;-75
2023/04/01 03:01:46;;;;;;;0.50;0.40;;;;;;;8.10;100.00;96753.34;5053312;28;20205;-76
2023/04/01 03:04:12;;;;;;;0.40;0.40;;;;;;;8.08;100.00;96758.88;5053137;28;20229;-75
2023/04/01 03:06:39;;;;;;;0.73;0.30;;;;;;;8.12;100.00;96759.22;5052945;28;20704;-75
2023/04/01 03:09:05;;;;;;;0.53;0.30;;;;;;;8.10;100.00;96758.66;5053236;28;20201;-76
2023/04/01 03:11:31;;;;;;;0.37;0.30;;;;;;;8.11;100.00;96768.19;5052830;28;20664;-75
2023/04/01 03:13:58;;;;;;;1.67;0.53;;;;;;;8.16;100.00;96760.34;5053057;28;20224;-76
2023/04/01 03:16:24;;;;;;;0.50;0.30;;;;;;;8.18;100.00;96755.59;5052869;28;20213;-76
2023/04/01 03:18:52;;;;;;;0.93;0.30;;;;;;;8.17;100.00;96761.94;5053181;28;20636;-75
2023/04/01 03:21:23;;;;;;;0.77;0.57;;;;;;;8.11;100.00;96761.03;5053128;28;20240;-76
2023/04/01 03:23:50;;;;;;;1.20;0.40;;;;;;;8.08;100.00;96756.22;5053039;28;20232;-76
2023/04/01 03:26:17;;;;;;;1.33;0.20;;;;;;;8.05;100.00;96756.69;5053162;28;20576;-76
2023/04/01 03:28:43;;;;;;;1.53;0.50;;;;;;;8.01;100.00;96760.06;5053072;28;20205;-76
2023/04/01 03:31:10;;;;;;;0.60;0.40;;;;;;;7.98;100.00;96763.16;5053070;28;20592;-76
2023/04/01 03:33:36;;;;;;;0.80;0.40;;;;;;;7.89;100.00;96764.56;5052813;28;20229;-76
2023/04/01 03:36:06;;;;;;;0.50;0.40;;;;;;;7.92;100.00;96766.75;5052994;28;20206;-76
2023/04/01 03:38:33;;;;;;;0.40;0.40;;;;;;;7.98;100.00;96763.16;5052659;28;20209;-76
2023/04/01 03:41:00;;;;;;;0.43;0.30;;;;;;;7.99;100.00;96768.22;5056341;28;20221;-76
2023/04/01 03:43:26;;;;;;;1.40;0.47;;;;;;;7.95;100.00;96760.97;5056327;28;20704;-76
2023/04/01 03:45:54;;;;;;;0.53;0.40;;;;;;;8.01;100.00;96760.84;5056531;28;20229;-75
2023/04/01 03:48:20;;;;;;;1.40;0.40;;;;;;;7.97;100.00;96759.69;5056319;28;20556;-76
2023/04/01 03:50:47;;;;;;;0.73;0.40;;;;;;;7.96;100.00;96755.44;5056565;28;20231;-76
2023/04/01 03:53:15;;;;;;;0.30;0.30;;;;;;;7.92;100.00;96758.81;5056313;28;20233;-76
2023/04/01 03:55:41;;;;;;;1.40;0.70;;;;;;;7.94;100.00;96751.44;5056375;28;20201;-76
2023/04/01 03:58:08;;;;;;;0.37;0.30;;;;;;;8.02;100.00;96745.78;5056160;28;20205;-76
2023/04/01 04:00:35;;;;;;;0.90;0.40;;;;;;;7.92;100.00;96748.22;5056179;28;20209;-76
2023/04/01 04:03:02;;;;;;;0.80;0.50;;;;;;;7.99;100.00;96743.59;5056372;28;20225;-76
2023/04/01 04:05:28;;;;;;;2.77;0.40;;;;;;;8.02;100.00;96751.06;5056005;28;20586;-76
2023/04/01 04:07:55;;;;;;;1.37;0.53;;;;;;;7.94;100.00;96743.50;5056329;28;20215;-76
2023/04/01 04:10:23;;;;;;;1.23;0.40;;;;;;;8.00;100.00;96742.53;5056471;28;20201;-76
2023/04/01 04:12:50;;;;;;;0.93;0.40;;;;;;;8.03;100.00;96742.09;5056082;28;20225;-76
2023/04/01 04:15:16;;;;;;;1.13;0.50;;;;;;;8.05;100.00;96746.09;5056597;28;20640;-76
2023/04/01 04:17:43;;;;;;;0.83;0.40;;;;;;;8.08;100.00;96742.19;5056131;28;20205;-76
2023/04/01 04:20:10;;;;;;;0.83;0.40;;;;;;;8.17;100.00;96748.72;5055767;28;20668;-76
2023/04/01 04:22:36;;;;;;;1.87;0.50;;;;;;;8.13;100.00;96742.28;5055599;28;20708;-76
2023/04/01 04:25:02;;;;;;;1.07;0.43;;;;;;;8.14;100.00;96734.09;5055868;28;20233;-76
2023/04/01 04:27:29;;;;;;;1.40;0.40;;;;;;;8.12;100.00;96741.50;5055944;28;20205;-76
2023/04/01 04:29:56;;;;;;;0.67;0.43;;;;;;;8.05;100.00;96740.81;5055918;28;20331;-76
2023/04/01 04:32:22;;;;;;;0.63;0.50;;;;;;;7.94;100.00;96732.91;5055647;28;20237;-76
2023/04/01 04:34:48;;;;;;;1.00;0.50;;;;;;;7.93;100.00;96741.88;5055524;28;20633;-76
2023/04/01 04:37:15;;;;;;;2.33;0.50;;;;;;;7.78;100.00;96723.06;5055689;28;20574;-76
2023/04/01 04:39:41;;;;;;;1.50;0.53;;;;;;;7.86;100.00;96735.91;5055243;28;20673;-76
2023/04/01 04:42:08;;;;;;;0.97;0.43;;;;;;;7.79;100.00;96737.91;5055021;28;20601;-76
2023/04/01 04:44:34;;;;;;;0.40;0.40;;;;;;;7.78;100.00;96742.38;5055143;28;20707;-76
2023/04/01 04:47:01;;;;;;;2.23;0.67;;;;;;;7.73;100.00;96738.81;5055460;28;20237;-76
2023/04/01 04:49:27;;;;;;;0.70;0.53;;;;;;;7.77;100.00;96732.00;5055391;28;20213;-76
2023/04/01 04:51:53;;;;;;;1.23;0.30;;;;;;;7.72;100.00;96731.91;5053922;28;20664;-76
2023/04/01 04:54:20;;;;;;;1.40;0.50;;;;;;;7.63;100.00;96726.19;5055331;28;20228;-76
2023/04/01 04:56:46;;;;;;;1.60;0.50;;;;;;;7.63;100.00;96731.47;5055082;28;20212;-76
2023/04/01 04:59:12;;;;;;;0.87;0.50;;;;;;;7.66;100.00;96731.03;5055353;28;20234;-76
2023/04/01 05:01:39;;;;;;;1.67;0.40;;;;;;;7.66;100.00;96730.22;5055267;28;20307;-76
2023/04/01 05:04:05;;;;;;;1.87;0.50;;;;;;;7.56;100.00;96730.78;5055118;28;20229;-76
2023/04/01 05:06:32;;;;;;;1.40;0.30;;;;;;;7.53;100.00;96730.44;5054759;28;20225;-76
2023/04/01 05:08:58;;;;;;;1.10;0.40;;;;;;;7.48;100.00;96722.41;5055453;28;20205;-76
2023/04/01 05:11:25;;;;;;;1.40;0.40;;;;;;;7.48;100.00;96723.22;5054918;28;20281;-76
2023/04/01 05:13:52;;;;;;;0.97;0.40;;;;;;;7.56;100.00;96730.78;5054712;28;20226;-76
2023/04/01 05:16:21;;;;;;;0.57;0.40;;;;;;;7.49;100.00;96730.13;5054738;28;20214;-76
2023/04/01 05:18:48;;;;;;;0.37;0.30;;;;;;;7.46;100.00;96724.50;5054823;28;20212;-76
2023/04/01 05:21:15;;;;;;;1.50;0.50;;;;;;;7.54;100.00;96724.13;5054753;28;20209;-76
2023/04/01 05:23:42;;;;;;;0.60;0.40;;;;;;;7.50;100.00;96715.03;5054338;28;20225;-76
2023/04/01 05:26:12;;;;;;;3.07;0.50;;;;;;;7.53;100.00;96717.22;5054677;28;20228;-76
2023/04/01 05:28:39;;;;;;;1.10;0.60;;;;;;;7.58;100.00;96712.03;5055248;28;20209;-76
2023/04/01 05:31:07;;;;;;;2.73;0.73;;;;;;;7.66;100.00;96717.81;5054319;28;20209;-76
2023/04/01 05:33:33;;;;;;;1.60;0.53;;;;;;;7.67;100.00;96705.34;5054057;28;20240;-76
2023/04/01 05:36:08;;;;;;;1.60;0.60;;;;;;;7.73;100.00;96710.53;5054461;28;20212;-76
2023/04/01 05:38:35;;;;;;;1.73;0.60;;;;;;;7.80;100.00;96713.03;5054109;28;20215;-76
2023/04/01 05:41:03;;;;;;;1.60;0.60;;;;;;;7.90;100.00;96722.00;5054192;28;20211;-76
2023/04/01 05:43:30;;;;;;;1.70;0.67;;;;;;;7.94;100.00;96712.56;5054284;28;20225;-76
2023/04/01 05:45:58;;;;;;;2.67;0.60;;;;;;;7.99;100.00;96710.00;5054180;28;20229;-76
2023/04/01 05:48:24;;;;;;;2.40;0.50;;;;;;;8.02;100.00;96714.03;5054296;28;20212;-76
2023/04/01 05:50:50;;;;;;;1.17;0.67;;;;;;;8.10;100.00;96703.06;5054251;28;20208;-76
2023/04/01 05:53:17;;;;;;;2.00;0.60;;;;;;;8.11;100.00;96704.66;5054061;28;20316;-76
2023/04/01 05:55:43;;;;;;;1.80;0.60;;;;;;;8.32;100.00;96698.75;5054072;28;20197;-76
2023/04/01 05:58:09;;;;;;;3.83;0.77;;;;;;;8.31;100.00;96702.41;5054152;28;20207;-76
2023/04/01 06:00:36;;;;;;;0.93;0.70;;;;;;;8.47;100.00;96704.31;5054064;28;20205;-75
2023/04/01 06:03:02;;;;;;;1.70;0.50;;;;;;;8.57;100.00;96702.66;5053681;28;20566;-76
2023/04/01 06:05:31;;;;;;;3.23;0.83;;;;;;;8.67;100.00;96697.53;5054151;28;20662;-76
2023/04/01 06:08:10;;;;;;;2.67;0.40;;;;;;;8.72;100.00;96694.13;5053495;28;20212;-76
2023/04/01 06:10:49;;;;;;;0.47;0.43;;;;;;;8.84;100.00;96694.88;5053836;28;20200;-76
2023/04/01 06:13:26;;;;;;;1.30;0.60;;;;;;;8.89;100.00;96679.06;5035725;28;20221;-76
2023/04/01 06:15:52;;;;;;;1.73;0.70;;;;;;;8.95;100.00;96688.69;5053383;28;20186;-75
2023/04/01 06:18:21;;;;;;;1.43;0.70;;;;;;;8.90;100.00;96684.13;5053570;28;20212;-76
2023/04/01 06:21:06;;;;;;;1.87;0.57;;;;;;;8.92;100.00;96682.00;5053551;28;20212;-75
2023/04/01 06:23:35;;;;;;;2.23;0.70;;;;;;;8.97;100.00;96694.56;5053441;28;20231;-75
2023/04/01 06:26:16;;;;;;;3.20;0.80;;;;;;;9.03;100.00;96681.16;5053461;28;20236;-76
2023/04/01 06:29:01;;;;;;;2.30;0.67;;;;;;;9.09;100.00;96679.38;5036242;28;20193;-75
2023/04/01 06:32:13;;;;;;;1.80;0.50;;;;;;;9.15;100.00;96683.69;5053617;28;20185;-76
2023/04/01 06:34:55;;;;;;;0.80;0.57;;;;;;;9.18;100.00;96689.31;5050869;28;20209;-76
2023/04/01 06:37:36;;;;;;;1.93;0.60;;;;;;;9.23;100.00;96686.72;5053535;28;20193;-76
2023/04/01 06:40:21;;;;;;;1.50;0.60;;;;;;;9.20;100.00;96704.97;5035766;28;20192;-76
2023/04/01 06:43:00;;;;;;;0.87;0.50;;;;;;;9.18;100.00;96699.09;5053299;28;20232;-76
2023/04/01 06:45:37;;;;;;;1.00;0.40;;;;;;;9.17;100.00;96700.16;5053263;28;20205;-75
2023/04/01 06:48:48;;;;;;;0.83;0.50;;;;;;;9.11;100.00;96691.34;5053022;28;20632;-77
2023/04/01 06:51:29;;;;;;;1.67;0.70;;;;;;;9.18;100.00;96689.31;5008037;28;20212;-76
2023/04/01 06:54:18;;;;;;;1.20;0.57;;;;;;;9.21;100.00;96694.16;5053662;28;20232;-76
2023/04/01 06:56:49;;;;;;;1.30;0.50;;;;;;;9.24;100.00;96700.81;5053224;28;20213;-76
2023/04/01 06:59:23;;;;;;;1.27;0.50;;;;;;;9.28;99.20;96696.63;5053134;28;20189;-75
2023/04/01 07:02:05;;;;;;;0.77;0.40;;;;;;;9.34;99.59;96695.66;5052997;28;20185;-76
2023/04/01 07:04:36;;;;;;;0.73;0.40;;;;;;;9.33;99.29;96702.00;5052989;28;20197;-76
2023/04/01 07:07:06;;;;;;;1.00;0.50;;;;;;;9.34;100.00;96693.00;5052860;28;20209;-77
2023/04/01 07:09:37;;;;;;;0.63;0.60;;;;;;;9.30;100.00;96703.28;5052826;28;20196;-76
2023/04/01 07:12:16;;;;;;;0.93;0.57;;;;;;;9.32;100.00;96695.09;5053727;28;20189;-77
2023/04/01 07:14:45;;;;;;;2.43;0.60;;;;;;;9.41;100.00;96699.72;5054628;28;20197;-76
2023/04/01 07:17:26;;;;;;;1.70;0.60;;;;;;;9.37;100.00;96713.72;5057132;28;20205;-76
2023/04/01 07:20:00;;;;;;;1.63;0.50;;;;;;;9.34;100.00;96707.06;5057020;28;20190;-76
2023/04/01 07:22:35;;;;;;;1.50;0.50;;;;;;;9.32;100.00;96711.78;5057039;28;20247;-76
2023/04/01 07:25:13;;;;;;;1.57;0.70;;;;;;;9.35;100.00;96710.50;5056369;28;20200;-76
2023/04/01 07:27:40;;;;;;;2.07;0.53;;;;;;;9.33;100.00;96718.69;5056743;28;20190;-76
2023/04/01 07:30:19;;;;;;;1.63;0.70;;;;;;;9.31;100.00;96715.50;5056847;28;20739;-77
2023/04/01 07:32:52;;;;;;;1.67;0.50;;;;;;;9.29;100.00;96719.44;5056406;28;20244;-76
2023/04/01 07:35:35;;;;;;;1.70;0.60;;;;;;;9.32;100.00;96714.44;5056522;28;20551;-76
2023/04/01 07:38:15;;;;;;;0.93;0.60;;;;;;;9.33;100.00;96721.34;5057413;28;20190;-76
2023/04/01 07:41:03;;;;;;;1.07;0.40;;;;;;;9.34;100.00;96715.03;5039447;28;20221;-76
2023/04/01 07:43:47;;;;;;;1.30;0.60;;;;;;;9.33;100.00;96717.91;5056403;28;20227;-76
2023/04/01 07:46:35;;;;;;;2.87;0.60;;;;;;;9.35;100.00;96721.13;5038684;28;20209;-76
2023/04/01 07:49:08;;;;;;;1.23;0.60;;;;;;;9.42;100.00;96711.94;5056095;28;20641;-76
2023/04/01 07:51:50;;;;;;;0.80;0.50;;;;;;;9.40;100.00;96718.53;5056422;28;20190;-76
2023/04/01 07:54:32;;;;;;;2.17;0.60;;;;;;;9.50;100.00;96724.00;5056530;28;20239;-76
2023/04/01 07:57:09;;;;;;;1.10;0.60;;;;;;;9.60;100.00;96724.13;5056399;28;20182;-76
2023/04/01 08:00:02;;;;;;;2.93;0.90;;;;;;;9.66;100.00;96716.00;5056232;28;20193;-76
2023/04/01 08:03:02;;;;;;;2.60;0.73;;;;;;;9.65;100.00;96721.53;5032913;28;20282;-76
2023/04/01 08:05:34;;;;;;;0.77;0.50;;;;;;;9.76;100.00;96724.09;5056134;28;20209;-76
2023/04/01 08:08:27;;;;;;;1.83;0.60;;;;;;;9.68;100.00;96719.19;5055906;28;20205;-76
2023/04/01 08:11:04;;;;;;;1.97;0.53;;;;;;;9.76;100.00;96723.28;5038391;28;20531;-76
2023/04/01 08:13:41;;;;;;;2.20;0.73;;;;;;;9.79;99.36;96726.25;5038053;28;20224;-76
2023/04/01 08:16:49;;;;;;;1.20;0.40;;;;;;;9.79;100.00;96730.75;5055858;28;20185;-76
2023/04/01 08:19:49;;;;;;;1.83;0.47;;;;;;;9.91;100.00;96723.50;5055938;28;20188;-76
2023/04/01 08:22:42;;;;;;;1.43;0.50;;;;;;;9.85;99.39;96721.81;5037869;28;20233;-76
2023/04/01 08:25:18;;;;;;;1.27;0.80;;;;;;;9.92;100.00;96728.53;5055617;28;20205;-76
2023/04/01 08:27:49;;;;;;;2.30;0.70;;;;;;;9.94;100.00;96723.78;5055532;28;20291;-77
2023/04/01 08:30:20;;;;;;;1.03;0.40;;;;;;;9.94;99.52;96733.59;5055497;28;20189;-76
2023/04/01 08:33:00;;;;;;;1.90;0.63;;;;;;;9.87;100.00;96730.34;5055447;28;20324;-76
2023/04/01 08:35:31;;;;;;;2.27;0.60;;;;;;;9.99;100.00;96738.97;5038494;28;20182;-76
2023/04/01 08:38:02;;;;;;;1.03;0.70;;;;;;;9.91;100.00;96731.44;5055573;28;20229;-76
2023/04/01 08:40:37;;;;;;;1.27;0.50;;;;;;;9.84;100.00;96741.44;5055378;28;20248;-76
2023/04/01 08:43:41;;;;;;;1.47;0.43;;;;;;;9.70;100.00;96740.19;5055031;28;20228;-76
2023/04/01 08:46:20;;;;;;;1.53;0.60;;;;;;;9.40;100.00;96750.34;5055348;28;20221;-75
2023/04/01 08:48:49;;;;;;;1.40;0.50;;;;;;;9.15;100.00;96747.34;5055458;28;20201;-75
2023/04/01 08:51:35;;;;;;;2.00;0.50;;;;;;;9.08;100.00;96742.19;5055342;28;20205;-75
2023/04/01 08:54:22;;;;;;;3.50;0.80;;;;;;;8.86;100.00;96733.34;5055390;28;20237;-75
2023/04/01 08:57:10;;;;;;;0.60;0.50;;;;;;;9.00;100.00;96731.19;5022232;28;20686;-75
2023/04/01 08:59:55;;;;;;;0.57;0.47;;;;;;;8.94;100.00;96729.47;5054947;28;20198;-75
2023/04/01 09:02:43;;;;;;;2.17;0.67;;;;;;;8.95;100.00;96737.19;5054960;28;20225;-75
2023/04/01 09:05:36;;;;;;;1.67;0.53;;;;;;;8.87;100.00;96734.94;5054469;28;20191;-75
2023/04/01 09:08:11;;;;;;;1.60;0.40;;;;;;;8.93;100.00;96738.50;5055412;28;20189;-75
2023/04/01 09:11:00;;;;;;;1.83;0.60;;;;;;;8.99;100.00;96727.72;5054858;28;20196;-75
2023/04/01 09:13:57;;;;;;;1.53;0.50;;;;;;;9.05;100.00;96734.72;5054751;28;20229;-76
2023/04/01 09:16:39;;;;;;;1.33;0.50;;;;;;;9.04;100.00;96741.06;5054532;28;20663;-75
2023/04/01 09:19:34;;;;;;;1.90;0.60;;;;;;;9.21;100.00;96739.22;5038266;28;20193;-75
2023/04/01 09:22:23;;;;;;;1.10;0.40;;;;;;;9.24;100.00;96736.06;5054659;28;20197;-75
2023/04/01 09:25:01;;;;;;;0.30;0.30;;;;;;;9.35;100.00;96737.84;5054413;28;20629;-75
2023/04/01 09:27:47;;;;;;;1.87;0.50;;;;;;;9.50;100.00;96745.22;5054327;28;20209;-75
2023/04/01 09:30:35;;;;;;;0.73;0.47;;;;;;;9.73;100.00;96742.38;5053943;28;20635;-75
2023/04/01 09:33:43;;;;;;;0.83;0.40;;;;;;;9.88;100.00;96739.91;5054169;28;20230;-75
2023/04/01 09:36:37;;;;;;;0.30;0.30;;;;;;;9.93;100.00;96739.97;5054007;28;20201;-75
2023/04/01 09:39:34;;;;;;;0.30;0.30;;;;;;;9.93;100.00;96739.97;5053825;28;20194;-75
2023/04/01 09:42:00;;;;;;;0.33;0.30;;;;;;;9.91;100.00;96747.38;5053972;28;20210;-75
2023/04/01 09:44:42;;;;;;;0.83;0.40;;;;;;;9.85;100.00;96759.78;5053430;28;20668;-75
2023/04/01 09:47:17;;;;;;;0.20;0.20;;;;;;;9.76;100.00;96755.94;5054167;28;20219;-75
2023/04/01 09:49:43;;;;;;;0.40;0.40;;;;;;;9.71;100.00;96757.72;5054096;28;20551;-76
2023/04/01 09:52:36;;;;;;;0.57;0.40;;;;;;;9.80;100.00;96742.97;5053996;28;20227;-76
2023/04/01 09:55:05;;;;;;;0.57;0.30;;;;;;;9.66;100.00;96755.81;5054086;28;20193;-75
2023/04/01 09:57:49;;;;;;;0.40;0.40;;;;;;;9.68;100.00;96753.69;5054060;28;20205;-75
2023/04/01 10:00:28;;;;;;;0.60;0.50;;;;;;;9.70;100.00;96761.41;5036080;28;20284;-76
2023/04/01 10:03:09;;;;;;;0.20;0.20;;;;;;;9.77;100.00;96751.44;5053662;28;20807;-76
2023/04/01 10:06:01;;;;;;;0.30;0.30;;;;;;;9.78;100.00;96767.09;5054176;28;20186;-76
2023/04/01 10:09:12;;;;;;;0.30;0.30;;;;;;;9.78;100.00;96768.97;5036988;28;20196;-75
2023/04/01 10:12:07;;;;;;;0.30;0.30;;;;;;;9.86;100.00;96769.34;4991964;28;20207;-75
2023/04/01 10:14:57;;;;;;;0.40;0.30;;;;;;;9.98;100.00;96775.34;5054172;28;20199;-75
2023/04/01 10:18:20;;;;;;;0.40;0.30;;;;;;;10.05;100.00;96768.03;5036081;28;20200;-76
2023/04/01 10:20:54;;;;;;;0.30;0.30;;;;;;;10.27;97.63;96768.81;5053153;28;20185;-76
2023/04/01 10:23:43;;;;;;;0.20;0.20;;;;;;;10.35;97.95;96768.41;5035885;28;20237;-76
2023/04/01 10:26:28;;;;;;;0.20;0.20;;;;;;;10.48;92.68;96764.53;5035663;28;20214;-74
2023/04/01 10:29:37;;;;;;;0.40;0.30;;;;;;;10.54;92.67;96766.22;5053230;28;20189;-76
2023/04/01 10:32:06;;;;;;;0.30;0.30;;;;;;;10.60;94.92;96771.31;5025504;28;20217;-75
2023/04/01 10:34:53;;;;;;;0.43;0.20;;;;;;;10.34;96.46;96769.44;5053038;28;20731;-76
2023/04/01 10:37:47;;;;;;;1.00;0.20;;;;;;;10.19;97.54;96761.28;5053339;28;20205;-75
2023/04/01 10:40:22;;;;;;;0.30;0.30;;;;;;;10.05;97.24;96769.88;5053071;28;20200;-76
2023/04/01 10:43:21;;;;;;;0.30;0.30;;;;;;;10.12;100.00;96763.34;5035678;28;20220;-76
2023/04/01 10:46:05;;;;;;;0.27;0.27;;;;;;;10.17;96.72;96754.63;5052912;28;20193;-74
2023/04/01 10:48:41;;;;;;;0.20;0.20;;;;;;;10.31;95.18;96769.94;5052405;28;20193;-76
2023/04/01 10:51:37;;;;;;;0.30;0.30;;;;;;;10.31;92.86;96774.44;5052819;28;20239;-76
2023/04/01 10:54:56;;;;;;;0.30;0.30;;;;;;;10.19;91.23;96760.50;5035075;28;20232;-75
2023/04/01 10:58:17;;;;;;;0.20;0.20;;;;;;;10.16;92.78;96769.78;5053029;28;20201;-75
2023/04/01 11:01:08;;;;;;;0.20;0.20;;;;;;;10.24;94.98;96769.34;5023004;28;20213;-76
2023/04/01 11:04:11;;;;;;;0.30;0.30;;;;;;;10.28;96.12;96788.22;5052821;28;20719;-76
2023/04/01 11:07:15;;;;;;;0.30;0.30;;;;;;;10.28;93.83;96774.94;5052751;28;20209;-75
2023/04/01 11:10:06;;;;;;;0.30;0.30;;;;;;;10.42;94.42;96773.53;5053150;28;20205;-74
2023/04/01 11:13:09;;;;;;;0.20;0.20;;;;;;;10.51;89.57;96786.09;5036351;28;20312;-75
2023/04/01 11:16:01;;;;;;;0.30;0.20;;;;;;;10.62;88.68;96773.72;5052855;28;20186;-76
2023/04/01 11:18:36;;;;;;;0.63;0.20;;;;;;;10.94;90.31;96770.09;5052953;28;20190;-75
2023/04/01 11:21:30;;;;;;;0.70;0.30;;;;;;;10.99;85.82;96782.59;5052763;28;20196;-76
2023/04/01 11:24:12;;;;;;;0.30;0.30;;;;;;;11.19;86.96;96774.81;5052453;28;20316;-76
2023/04/01 11:27:20;;;;;;;0.27;0.27;;;;;;;11.12;87.19;96776.09;5052805;28;20237;-76
2023/04/01 11:30:07;;;;;;;0.20;0.20;;;;;;;10.87;85.46;96774.00;5024144;28;20224;-75
2023/04/01 11:32:50;;;;;;;0.27;0.27;;;;;;;11.09;86.57;96780.06;5052404;28;20229;-76
2023/04/01 11:35:35;;;;;;;1.00;0.23;;;;;;;11.04;84.44;96775.47;5052440;28;20209;-74
2023/04/01 11:38:15;;;;;;;1.07;0.30;;;;;;;11.20;87.07;96779.09;5052720;28;20185;-75
2023/04/01 11:40:57;;;;;;;0.27;0.27;;;;;;;11.31;84.18;96777.31;5052363;28;20633;-76
2023/04/01 11:43:47;;;;;;;0.20;0.20;;;;;;;11.32;81.96;96788.50;5052577;28;20226;-74
2023/04/01 11:46:27;;;;;;;0.20;0.20;;;;;;;11.58;82.62;96786.03;5052505;28;20721;-74
2023/04/01 11:49:06;;;;;;;0.37;0.20;;;;;;;11.69;82.15;96788.53;5052653;28;20252;-77
2023/04/01 11:51:54;;;;;;;0.40;0.30;;;;;;;11.58;82.10;96786.03;5052801;28;20200;-77
2023/04/01 11:54:54;;;;;;;0.43;0.30;;;;;;;11.25;81.95;96797.75;5053480;28;20197;-76
2023/04/01 11:57:42;;;;;;;0.73;0.30;;;;;;;11.17;83.53;96800.84;5052594;28;20196;-74
2023/04/01 12:00:25;;;;;;;0.23;0.23;;;;;;;11.06;85.39;96804.50;5053115;28;20197;-78
2023/04/01 12:03:41;;;;;;;0.20;0.20;;;;;;;10.97;85.29;96795.38;5056287;28;20225;-77
2023/04/01 12:06:19;;;;;;;0.20;0.20;;;;;;;10.94;87.26;96817.94;5012494;28;20221;-77
2023/04/01 12:08:56;;;;;;;0.40;0.20;;;;;;;10.86;86.11;96805.09;5055908;28;20189;-78
2023/04/01 12:11:38;;;;;;;0.20;0.20;;;;;;;10.95;86.15;96802.81;5056158;28;20192;-75
2023/04/01 12:14:04;;;;;;;0.20;0.20;;;;;;;10.95;87.15;96802.81;5055914;28;20275;-75
2023/04/01 12:17:03;;;;;;;0.20;0.20;;;;;;;10.85;88.66;96811.47;5055619;28;20206;-74